createdAt,value
2023-03-02T00:09:06.313Z,65.08
2023-03-02T00:19:27.543Z,64.93
2023-03-02T00:29:48.553Z,65.12
2023-03-02T00:40:10.371Z,65.22
2023-03-02T00:50:31.805Z,65.21
2023-03-02T01:00:53.010Z,64.85
2023-03-02T01:11:24.520Z,65.17
2023-03-02T01:21:45.936Z,65.07
2023-03-02T01:32:07.497Z,65.57
2023-03-02T01:42:34.802Z,65.40
2023-03-02T01:52:56.938Z,65.70
2023-03-02T02:03:23.557Z,64.57
2023-03-02T02:13:45.333Z,65.01
2023-03-02T02:24:11.882Z,64.90
2023-03-02T02:34:50.149Z,64.74
2023-03-02T02:45:26.502Z,64.80
2023-03-02T02:55:50.742Z,65.18
2023-03-02T03:06:19.446Z,64.86
2023-03-02T03:16:43.107Z,64.79
2023-03-02T03:27:05.728Z,64.72
2023-03-02T03:37:29.895Z,64.57
2023-03-02T03:47:51.203Z,64.64
2023-03-02T03:58:12.784Z,64.17
2023-03-02T04:08:34.611Z,64.24
2023-03-02T04:18:57.189Z,64.49
2023-03-02T04:29:19.534Z,64.44
2023-03-02T04:39:42.611Z,64.53
2023-03-02T04:50:03.679Z,64.44
2023-03-02T05:00:25.340Z,64.23
2023-03-02T05:10:46.337Z,64.31
2023-03-02T05:21:07.368Z,64.17
2023-03-02T05:31:31.593Z,64.12
2023-03-02T05:41:53.752Z,64.36
2023-03-02T05:52:15.171Z,64.21
2023-03-02T06:02:39.272Z,64.26
2023-03-02T06:13:01.321Z,64.00
2023-03-02T06:23:22.320Z,64.17
2023-03-02T06:33:43.756Z,64.21
2023-03-02T06:44:05.405Z,64.22
2023-03-02T06:54:26.642Z,64.12
2023-03-02T07:04:47.649Z,64.07
2023-03-02T07:15:12.485Z,64.15
2023-03-02T07:25:33.895Z,64.04
2023-03-02T07:35:54.851Z,64.35
2023-03-02T07:46:16.547Z,64.04
2023-03-02T07:56:38.031Z,64.53
2023-03-02T08:06:59.146Z,64.37
2023-03-02T08:17:20.771Z,64.39
2023-03-02T08:27:42.249Z,64.03
2023-03-02T08:38:03.327Z,64.32
2023-03-02T08:48:25.593Z,64.37
2023-03-02T08:58:48.287Z,64.17
2023-03-02T09:09:11.340Z,63.72
2023-03-02T09:19:43.928Z,64.16
2023-03-02T09:30:06.271Z,64.02
2023-03-02T09:40:29.122Z,64.43
2023-03-02T09:51:24.213Z,64.37
2023-03-02T10:01:53.264Z,64.83
2023-03-02T10:12:35.728Z,65.16
2023-03-02T10:23:26.688Z,64.86
2023-03-02T10:33:48.267Z,65.50
2023-03-02T10:44:42.888Z,65.30
2023-03-02T10:55:07.140Z,65.48
2023-03-02T11:05:32.815Z,65.73
2023-03-02T11:15:56.969Z,65.51
2023-03-02T11:26:23.800Z,66.12
2023-03-02T11:36:59.497Z,65.95
2023-03-02T11:47:21.497Z,65.91
2023-03-02T11:57:49.786Z,65.58
2023-03-02T12:08:20.096Z,66.21
2023-03-02T12:18:47.893Z,65.95
2023-03-02T12:29:10.511Z,66.65
2023-03-02T12:39:43.331Z,66.40
2023-03-02T12:50:18.202Z,66.39
2023-03-02T13:00:39.209Z,66.88
2023-03-02T13:11:03.733Z,66.74
2023-03-02T13:21:31.235Z,67.01
2023-03-02T13:31:53.068Z,66.97
2023-03-02T13:42:26.247Z,67.10
2023-03-02T13:52:48.924Z,67.34
2023-03-02T14:03:23.175Z,67.26
2023-03-02T14:13:48.088Z,67.04
2023-03-02T14:24:09.351Z,67.42
2023-03-02T14:34:30.489Z,67.54
2023-03-02T14:44:52.288Z,67.17
2023-03-02T14:55:15.881Z,67.73
2023-03-02T15:05:37.036Z,67.89
2023-03-02T15:15:58.164Z,68.15
2023-03-02T15:26:19.704Z,68.06
2023-03-02T15:36:41.209Z,68.43
2023-03-02T15:47:02.612Z,68.32
2023-03-02T15:57:25.132Z,68.87
2023-03-02T16:07:46.028Z,69.03
2023-03-02T16:18:08.944Z,68.85
2023-03-02T16:28:30.581Z,69.55
2023-03-02T16:38:52.278Z,69.10
2023-03-02T16:49:14.035Z,69.40
2023-03-02T16:59:35.172Z,68.67
2023-03-02T17:09:56.487Z,68.67
2023-03-02T17:20:18.204Z,68.89
2023-03-02T17:30:40.310Z,68.16
2023-03-02T17:41:05.616Z,68.63
2023-03-02T17:51:28.687Z,68.25
2023-03-02T18:01:50.355Z,66.91
2023-03-02T18:12:11.391Z,67.33
2023-03-02T18:22:32.791Z,67.00
2023-03-02T18:32:54.538Z,66.73
2023-03-02T18:43:15.575Z,67.14
2023-03-02T18:53:38.371Z,66.96
2023-03-02T19:04:00.852Z,66.88
2023-03-02T19:14:22.416Z,66.84
2023-03-02T19:24:47.761Z,66.77
2023-03-02T19:35:12.463Z,66.48
2023-03-02T19:45:35.880Z,65.88
2023-03-02T19:56:04.757Z,65.91
2023-03-02T20:06:33.524Z,65.29
2023-03-02T20:16:55.271Z,65.66
2023-03-02T20:27:16.606Z,65.46
2023-03-02T20:37:38.642Z,65.45
2023-03-02T20:47:59.604Z,65.68
2023-03-02T20:58:20.867Z,65.71
2023-03-02T21:08:42.639Z,65.68
2023-03-02T21:19:06.165Z,64.72
2023-03-02T21:29:27.801Z,65.58
2023-03-02T21:39:49.730Z,65.44
2023-03-02T21:50:20.772Z,65.18
2023-03-02T22:00:45.754Z,64.73
2023-03-02T22:11:07.186Z,65.06
2023-03-02T22:21:39.161Z,65.79
2023-03-02T22:32:21.297Z,65.22
2023-03-02T22:42:42.906Z,65.35
2023-03-02T22:53:18.488Z,65.25
2023-03-02T23:03:41.700Z,64.50
2023-03-02T23:14:03.586Z,64.77
2023-03-02T23:24:25.369Z,65.14
2023-03-02T23:34:47.825Z,65.22
2023-03-02T23:45:09.776Z,63.92
2023-03-02T23:55:32.446Z,64.04
